createdAt,value
2023-05-12T00:02:14.660Z,5.80
2023-05-12T00:04:41.485Z,6.10
2023-05-12T00:07:07.945Z,5.65
2023-05-12T00:09:34.380Z,6.32
2023-05-12T00:12:00.887Z,5.53
2023-05-12T00:14:27.294Z,6.18
2023-05-12T00:16:54.019Z,6.18
2023-05-12T00:19:23.279Z,5.47
2023-05-12T00:21:52.218Z,5.63
2023-05-12T00:24:18.729Z,5.65
2023-05-12T00:26:47.495Z,5.93
2023-05-12T00:29:13.946Z,5.70
2023-05-12T00:31:40.645Z,6.20
2023-05-12T00:34:09.465Z,5.72
2023-05-12T00:36:36.200Z,5.95
2023-05-12T00:39:04.662Z,5.78
2023-05-12T00:41:31.187Z,5.53
2023-05-12T00:43:57.699Z,5.95
2023-05-12T00:46:24.330Z,6.05
2023-05-12T00:48:50.894Z,6.60
2023-05-12T00:51:19.767Z,6.30
2023-05-12T00:53:50.020Z,6.93
2023-05-12T00:56:17.898Z,6.28
2023-05-12T00:58:47.455Z,6.28
2023-05-12T01:01:14.022Z,5.97
2023-05-12T01:03:40.524Z,6.63
2023-05-12T01:06:11.532Z,6.32
2023-05-12T01:08:37.967Z,6.43
2023-05-12T01:11:04.397Z,6.45
2023-05-12T01:13:31.634Z,6.68
2023-05-12T01:16:01.517Z,6.72
2023-05-12T01:18:28.020Z,6.43
2023-05-12T01:20:58.409Z,6.97
2023-05-12T01:23:25.083Z,6.68
2023-05-12T01:25:51.506Z,6.30
2023-05-12T01:28:18.056Z,7.03
2023-05-12T01:30:44.598Z,7.00
2023-05-12T01:33:13.493Z,6.80
2023-05-12T01:35:40.383Z,6.93
2023-05-12T01:38:06.933Z,7.20
2023-05-12T01:40:33.993Z,6.90
2023-05-12T01:43:00.486Z,6.47
2023-05-12T01:45:27.025Z,6.68
2023-05-12T01:47:53.501Z,6.55
2023-05-12T01:50:22.394Z,6.43
2023-05-12T01:52:51.490Z,7.05
2023-05-12T01:55:17.918Z,6.90
2023-05-12T01:57:44.404Z,6.35
2023-05-12T02:00:11.294Z,7.22
2023-05-12T02:02:57.042Z,6.90
2023-05-12T02:05:26.422Z,6.88
2023-05-12T02:07:55.057Z,6.80
2023-05-12T02:10:23.900Z,6.88
2023-05-12T02:12:50.416Z,6.68
2023-05-12T02:15:16.939Z,6.95
2023-05-12T02:17:43.467Z,6.85
2023-05-12T02:20:12.275Z,6.88
2023-05-12T02:22:38.932Z,7.82
2023-05-12T02:25:05.642Z,6.43
2023-05-12T02:27:34.528Z,6.75
2023-05-12T02:30:01.059Z,6.95
2023-05-12T02:32:28.702Z,6.43
2023-05-12T02:34:55.801Z,6.72
2023-05-12T02:37:22.711Z,6.45
2023-05-12T02:39:49.228Z,6.72
2023-05-12T02:42:15.781Z,6.75
2023-05-12T02:44:44.599Z,7.05
2023-05-12T02:47:11.094Z,6.65
2023-05-12T02:49:37.773Z,6.25
2023-05-12T02:52:07.032Z,6.40
2023-05-12T02:54:33.415Z,6.30
2023-05-12T02:57:06.847Z,6.05
2023-05-12T02:59:36.090Z,5.68
2023-05-12T03:02:05.067Z,5.65
2023-05-12T03:04:33.217Z,6.10
2023-05-12T03:06:59.696Z,5.05
2023-05-12T03:09:28.483Z,5.80
2023-05-12T03:11:55.022Z,6.10
2023-05-12T03:14:23.822Z,5.78
2023-05-12T03:16:50.269Z,5.80
2023-05-12T03:19:21.685Z,5.43
2023-05-12T03:21:48.179Z,5.70
2023-05-12T03:24:14.610Z,5.22
2023-05-12T03:26:43.428Z,5.57
2023-05-12T03:29:12.521Z,5.57
2023-05-12T03:31:41.483Z,5.88
2023-05-12T03:34:08.000Z,5.70
2023-05-12T03:36:34.422Z,5.72
2023-05-12T03:39:03.281Z,5.75
2023-05-12T03:41:31.819Z,6.03
2023-05-12T03:44:00.589Z,5.72
2023-05-12T03:46:27.353Z,5.15
2023-05-12T03:48:56.206Z,5.90
2023-05-12T03:51:22.804Z,5.70
2023-05-12T03:53:49.394Z,5.53
2023-05-12T03:56:17.072Z,5.63
2023-05-12T03:58:43.828Z,5.60
2023-05-12T04:01:10.316Z,5.55
2023-05-12T04:03:39.167Z,6.15
2023-05-12T04:06:08.774Z,5.45
2023-05-12T04:08:38.515Z,5.90
2023-05-12T04:11:06.192Z,5.65
2023-05-12T04:13:33.059Z,5.65
2023-05-12T04:15:59.522Z,5.90
2023-05-12T04:18:26.368Z,5.93
2023-05-12T04:20:53.115Z,5.65
2023-05-12T04:23:19.627Z,5.55
2023-05-12T04:25:46.147Z,5.50
2023-05-12T04:28:14.975Z,5.80
2023-05-12T04:30:42.173Z,5.78
2023-05-12T04:33:11.109Z,5.63
2023-05-12T04:35:37.733Z,5.50
2023-05-12T04:38:04.518Z,5.32
2023-05-12T04:40:33.382Z,5.65
2023-05-12T04:43:01.380Z,5.00
2023-05-12T04:45:27.794Z,5.60
2023-05-12T04:47:54.419Z,5.40
2023-05-12T04:50:21.000Z,5.47
2023-05-12T04:52:47.509Z,5.80
2023-05-12T04:55:14.100Z,5.22
2023-05-12T04:57:41.569Z,5.40
2023-05-12T05:00:09.205Z,5.38
2023-05-12T05:02:35.980Z,5.60
2023-05-12T05:05:02.626Z,5.55
2023-05-12T05:07:31.257Z,5.40
2023-05-12T05:10:00.190Z,5.18
2023-05-12T05:12:29.600Z,5.30
2023-05-12T05:14:56.217Z,5.53
2023-05-12T05:17:22.807Z,5.50
2023-05-12T05:19:55.979Z,5.10
2023-05-12T05:22:25.593Z,5.40
2023-05-12T05:24:52.136Z,5.38
2023-05-12T05:27:18.859Z,5.40
2023-05-12T05:29:47.778Z,5.78
2023-05-12T05:32:16.762Z,5.18
2023-05-12T05:34:44.134Z,5.43
2023-05-12T05:37:13.033Z,5.40
2023-05-12T05:39:39.593Z,5.30
2023-05-12T05:42:08.460Z,5.10
2023-05-12T05:44:34.919Z,4.80
2023-05-12T05:47:02.961Z,5.30
2023-05-12T05:49:31.781Z,5.53
2023-05-12T05:51:58.333Z,5.45
2023-05-12T05:54:25.535Z,5.20
2023-05-12T05:56:51.997Z,5.65
2023-05-12T05:59:20.846Z,5.20
2023-05-12T06:01:47.334Z,4.95
2023-05-12T06:04:13.955Z,5.30
2023-05-12T06:06:42.942Z,5.30
2023-05-12T06:09:12.284Z,5.30
2023-05-12T06:11:41.009Z,5.75
2023-05-12T06:14:07.395Z,5.47
2023-05-12T06:16:33.971Z,5.57
2023-05-12T06:19:02.827Z,5.50
2023-05-12T06:21:29.299Z,5.20
2023-05-12T06:23:58.101Z,5.68
2023-05-12T06:26:26.997Z,5.10
2023-05-12T06:28:53.506Z,5.30
2023-05-12T06:31:23.038Z,5.25
2023-05-12T06:33:49.741Z,5.82
2023-05-12T06:36:16.871Z,5.50
2023-05-12T06:38:46.424Z,5.55
2023-05-12T06:41:12.959Z,5.10
2023-05-12T06:43:39.864Z,6.07
2023-05-12T06:46:08.829Z,7.32
2023-05-12T06:48:37.641Z,6.85
2023-05-12T06:51:04.335Z,7.00
2023-05-12T06:53:30.992Z,7.03
2023-05-12T06:55:57.436Z,6.80
2023-05-12T06:58:26.983Z,6.35
2023-05-12T07:00:56.463Z,5.97
2023-05-12T07:03:23.090Z,5.88
2023-05-12T07:05:49.664Z,5.60
2023-05-12T07:08:19.064Z,5.50
2023-05-12T07:10:47.890Z,5.90
2023-05-12T07:13:14.344Z,5.53
2023-05-12T07:15:40.878Z,5.90
2023-05-12T07:18:07.547Z,5.65
2023-05-12T07:20:34.037Z,5.20
2023-05-12T07:23:00.581Z,5.75
2023-05-12T07:25:28.338Z,5.30
2023-05-12T07:27:57.022Z,5.32
2023-05-12T07:30:23.541Z,5.85
2023-05-12T07:32:50.064Z,5.15
2023-05-12T07:35:17.426Z,5.53
2023-05-12T07:37:44.005Z,5.60
2023-05-12T07:40:10.671Z,5.38
2023-05-12T07:42:37.359Z,5.32
2023-05-12T07:45:04.073Z,5.32
2023-05-12T07:47:30.753Z,5.43
2023-05-12T07:49:59.613Z,5.30
2023-05-12T07:52:26.128Z,5.30
2023-05-12T07:54:52.704Z,5.00
2023-05-12T07:57:21.578Z,5.90
2023-05-12T07:59:48.286Z,5.10
2023-05-12T08:02:14.754Z,5.38
2023-05-12T08:04:43.866Z,5.38
2023-05-12T08:07:11.099Z,5.47
2023-05-12T08:09:40.040Z,5.38
2023-05-12T08:12:06.534Z,5.03
2023-05-12T08:14:35.295Z,5.32
2023-05-12T08:17:01.756Z,5.53
2023-05-12T08:19:29.507Z,5.22
2023-05-12T08:21:56.167Z,5.15
2023-05-12T08:24:25.023Z,4.97
2023-05-12T08:26:51.565Z,4.95
2023-05-12T08:29:20.952Z,4.75
2023-05-12T08:31:47.415Z,4.78
2023-05-12T08:34:13.912Z,5.45
2023-05-12T08:36:43.330Z,4.80
2023-05-12T08:39:12.556Z,5.32
2023-05-12T08:41:43.295Z,4.63
2023-05-12T08:44:09.881Z,4.82
2023-05-12T08:46:36.395Z,4.68
2023-05-12T08:49:03.134Z,4.30
2023-05-12T08:51:31.902Z,5.18
2023-05-12T08:53:58.581Z,4.68
2023-05-12T08:58:56.791Z,5.10
2023-05-12T09:01:25.737Z,4.70
2023-05-12T09:03:53.024Z,5.63
2023-05-12T09:06:19.562Z,5.03
2023-05-12T09:08:48.371Z,4.80
2023-05-12T09:11:14.805Z,4.70
2023-05-12T09:14:01.007Z,5.40
2023-05-12T09:16:28.740Z,4.95
2023-05-12T09:18:59.211Z,4.68
2023-05-12T09:21:26.500Z,4.57
2023-05-12T09:23:57.198Z,5.10
2023-05-12T09:26:26.860Z,4.85
2023-05-12T09:28:54.602Z,4.55
2023-05-12T09:31:22.585Z,4.90
2023-05-12T09:33:49.538Z,4.70
2023-05-12T09:36:19.673Z,5.10
2023-05-12T09:38:46.576Z,5.30
2023-05-12T09:41:13.047Z,4.95
2023-05-12T09:43:46.370Z,4.72
2023-05-12T09:46:15.256Z,5.18
2023-05-12T09:48:41.712Z,4.60
2023-05-12T09:51:09.780Z,5.13
2023-05-12T09:53:43.180Z,5.10
2023-05-12T09:56:13.389Z,4.80
2023-05-12T09:58:48.593Z,4.55
2023-05-12T10:01:22.740Z,4.70
2023-05-12T10:03:57.160Z,5.10
2023-05-12T10:06:28.257Z,4.95
2023-05-12T10:09:05.568Z,5.05
2023-05-12T10:11:32.129Z,4.93
2023-05-12T10:14:01.096Z,4.70
2023-05-12T10:16:30.561Z,4.57
2023-05-12T10:18:57.136Z,4.90
2023-05-12T10:21:24.539Z,5.00
2023-05-12T10:23:51.227Z,4.80
2023-05-12T10:26:17.880Z,4.75
2023-05-12T10:28:44.379Z,5.13
2023-05-12T10:31:10.856Z,4.93
2023-05-12T10:33:37.514Z,5.00
2023-05-12T10:36:05.086Z,5.45
2023-05-12T10:38:37.707Z,5.18
2023-05-12T10:41:05.721Z,4.97
2023-05-12T10:43:38.895Z,4.88
2023-05-12T10:46:09.245Z,4.85
2023-05-12T10:48:36.290Z,5.40
2023-05-12T10:51:11.757Z,4.75
2023-05-12T10:53:49.172Z,4.68
2023-05-12T10:56:25.200Z,4.68
2023-05-12T10:59:11.230Z,4.93
2023-05-12T11:01:38.205Z,4.68
2023-05-12T11:04:15.734Z,5.20
2023-05-12T11:06:44.409Z,4.97
2023-05-12T11:09:13.339Z,4.72
2023-05-12T11:11:43.494Z,4.65
2023-05-12T11:14:10.041Z,5.07
2023-05-12T11:16:43.923Z,5.00
2023-05-12T11:19:13.335Z,4.68
2023-05-12T11:21:40.425Z,4.80
2023-05-12T11:24:15.200Z,4.63
2023-05-12T11:26:41.732Z,4.82
2023-05-12T11:29:08.128Z,4.78
2023-05-12T11:31:34.722Z,4.88
2023-05-12T11:34:12.798Z,5.63
2023-05-12T11:36:42.282Z,5.15
2023-05-12T11:39:23.967Z,4.78
2023-05-12T11:41:54.583Z,5.30
2023-05-12T11:44:26.003Z,5.05
2023-05-12T11:47:01.753Z,5.00
2023-05-12T11:49:30.884Z,4.55
2023-05-12T11:51:57.978Z,5.07
2023-05-12T11:54:25.220Z,4.85
2023-05-12T11:56:52.279Z,5.00
2023-05-12T11:59:34.612Z,4.90
2023-05-12T12:02:02.755Z,5.28
2023-05-12T12:04:40.453Z,7.32
2023-05-12T12:07:07.553Z,9.00
2023-05-12T12:09:38.198Z,9.55
2023-05-12T12:12:05.232Z,10.35
2023-05-12T12:14:32.227Z,10.23
2023-05-12T12:16:58.970Z,9.57
2023-05-12T12:19:27.738Z,10.70
2023-05-12T12:21:54.751Z,11.70
2023-05-12T12:24:21.314Z,11.43
2023-05-12T12:26:47.860Z,11.43
2023-05-12T12:29:14.538Z,12.13
2023-05-12T12:31:41.279Z,12.40
2023-05-12T12:34:08.229Z,11.93
2023-05-12T12:36:35.736Z,11.35
2023-05-12T12:39:02.682Z,11.55
2023-05-12T12:41:31.586Z,11.82
2023-05-12T12:43:58.043Z,12.10
2023-05-12T12:46:24.725Z,12.88
2023-05-12T12:48:53.965Z,11.55
2023-05-12T12:51:20.998Z,12.27
2023-05-12T12:53:47.566Z,11.40
2023-05-12T12:56:14.069Z,11.30
2023-05-12T12:58:40.818Z,7.38
2023-05-12T13:01:07.410Z,7.68
2023-05-12T13:03:33.925Z,5.85
2023-05-12T13:06:00.513Z,6.22
2023-05-12T13:08:27.227Z,9.38
2023-05-12T13:10:54.911Z,9.27
2023-05-12T13:13:21.492Z,8.35
2023-05-12T13:15:48.157Z,8.82
2023-05-12T13:18:14.819Z,9.07
2023-05-12T13:20:42.180Z,8.63
2023-05-12T13:23:08.745Z,8.18
2023-05-12T13:25:35.243Z,8.55
2023-05-12T13:28:01.719Z,8.63
2023-05-12T13:30:28.159Z,8.63
2023-05-12T13:32:57.321Z,8.30
2023-05-12T13:35:24.374Z,7.97
2023-05-12T13:37:51.292Z,8.45
2023-05-12T13:40:17.845Z,8.75
2023-05-12T13:42:44.330Z,8.48
2023-05-12T13:45:13.801Z,7.95
2023-05-12T13:47:42.965Z,9.35
2023-05-12T13:50:09.623Z,8.68
2023-05-12T13:52:36.213Z,8.75
2023-05-12T13:55:03.187Z,8.68
2023-05-12T13:57:29.695Z,8.05
2023-05-12T13:59:58.561Z,8.07
2023-05-12T14:02:25.350Z,8.23
2023-05-12T14:04:51.884Z,8.40
2023-05-12T14:07:19.341Z,9.10
2023-05-12T14:09:45.880Z,8.70
2023-05-12T14:12:12.344Z,7.95
2023-05-12T14:14:38.868Z,8.48
2023-05-12T14:17:05.341Z,7.65
2023-05-12T14:19:31.861Z,8.07
2023-05-12T14:21:58.290Z,8.55
2023-05-12T14:24:24.779Z,7.95
2023-05-12T14:26:51.354Z,7.38
2023-05-12T14:29:17.829Z,8.10
2023-05-12T14:31:44.418Z,7.63
2023-05-12T14:34:11.902Z,7.90
2023-05-12T14:36:38.345Z,7.43
2023-05-12T14:39:06.812Z,7.38
2023-05-12T14:41:33.292Z,8.40
2023-05-12T14:43:59.745Z,7.18
2023-05-12T14:46:26.307Z,7.68
2023-05-12T14:48:52.857Z,8.05
2023-05-12T14:51:19.387Z,7.57
2023-05-12T14:53:46.127Z,7.47
2023-05-12T14:56:12.572Z,7.07
2023-05-12T14:58:41.418Z,7.72
2023-05-12T15:01:09.491Z,7.82
2023-05-12T15:03:36.316Z,8.00
2023-05-12T15:06:07.031Z,7.32
2023-05-12T15:11:00.333Z,7.88
2023-05-12T15:13:26.796Z,7.80
2023-05-12T15:15:55.291Z,7.63
2023-05-12T15:18:23.508Z,7.30
2023-05-12T15:20:50.120Z,8.02
2023-05-12T15:23:16.802Z,7.53
2023-05-12T15:25:43.334Z,7.78
2023-05-12T15:28:09.896Z,7.75
2023-05-12T15:30:36.369Z,7.18
2023-05-12T15:33:06.695Z,7.47
2023-05-12T15:35:33.746Z,6.97
2023-05-12T15:38:03.125Z,8.02
2023-05-12T15:40:30.827Z,7.70
2023-05-12T15:42:57.992Z,7.57
2023-05-12T15:45:24.484Z,7.60
2023-05-12T15:47:51.094Z,7.03
2023-05-12T15:50:19.932Z,7.20
2023-05-12T15:52:48.819Z,6.80
2023-05-12T15:55:15.485Z,7.85
2023-05-12T15:57:44.290Z,7.45
2023-05-12T16:00:11.196Z,7.57
2023-05-12T16:02:40.269Z,7.40
2023-05-12T16:05:07.288Z,7.72
2023-05-12T16:07:36.269Z,7.63
2023-05-12T16:10:03.750Z,6.90
2023-05-12T16:12:30.715Z,7.40
2023-05-12T16:14:57.149Z,7.25
2023-05-12T16:17:23.807Z,6.90
2023-05-12T16:19:53.138Z,8.43
2023-05-12T16:22:19.735Z,7.18
2023-05-12T16:24:46.386Z,6.47
2023-05-12T16:27:12.823Z,7.10
2023-05-12T16:29:41.571Z,7.82
2023-05-12T16:32:08.825Z,7.22
2023-05-12T16:34:35.346Z,6.63
2023-05-12T16:37:02.303Z,6.80
2023-05-12T16:39:28.833Z,6.97
2023-05-12T16:41:56.416Z,6.72
2023-05-12T16:44:25.190Z,7.30
2023-05-12T16:46:51.743Z,6.70
2023-05-12T16:49:18.272Z,6.95
2023-05-12T16:51:45.448Z,6.55
2023-05-12T16:54:11.915Z,7.03
2023-05-12T16:56:38.392Z,6.40
2023-05-12T16:59:07.721Z,6.72
2023-05-12T17:01:35.993Z,7.07
2023-05-12T17:04:02.616Z,6.50
2023-05-12T17:06:29.223Z,7.30
2023-05-12T17:08:55.771Z,6.55
2023-05-12T17:11:22.453Z,6.63
2023-05-12T17:13:48.959Z,6.57
2023-05-12T17:16:16.090Z,6.65
2023-05-12T17:21:12.460Z,6.28
2023-05-12T17:23:38.998Z,6.07
2023-05-12T17:26:07.816Z,6.43
2023-05-12T17:28:34.340Z,7.00
2023-05-12T17:31:02.876Z,6.32
2023-05-12T17:33:29.552Z,6.10
2023-05-12T17:36:10.851Z,6.40
2023-05-12T17:38:39.291Z,6.05
2023-05-12T17:41:05.812Z,6.00
2023-05-12T17:43:32.206Z,6.03
2023-05-12T17:46:01.233Z,6.55
2023-05-12T17:48:27.996Z,6.10
2023-05-12T17:50:54.514Z,6.40
2023-05-12T17:53:23.390Z,6.00
2023-05-12T17:55:52.232Z,6.65
2023-05-12T17:58:18.779Z,6.25
2023-05-12T18:00:45.409Z,5.57
2023-05-12T18:03:11.977Z,6.13
2023-05-12T18:05:38.773Z,5.93
2023-05-12T18:08:06.103Z,5.97
2023-05-12T18:10:32.580Z,6.00
2023-05-12T18:12:59.307Z,5.78
2023-05-12T18:15:26.006Z,5.55
2023-05-12T18:17:52.843Z,5.85
2023-05-12T18:20:19.618Z,5.75
2023-05-12T18:22:50.748Z,6.10
2023-05-12T18:25:17.351Z,5.70
2023-05-12T18:27:46.332Z,5.63
2023-05-12T18:30:13.091Z,5.30
2023-05-12T18:32:41.125Z,5.50
2023-05-12T18:35:11.973Z,5.35
2023-05-12T18:37:38.965Z,5.72
2023-05-12T18:40:07.805Z,5.63
2023-05-12T18:42:34.972Z,5.60
2023-05-12T18:45:01.517Z,6.13
2023-05-12T18:47:30.250Z,5.47
2023-05-12T18:49:57.276Z,5.80
2023-05-12T18:52:23.756Z,5.32
2023-05-12T18:54:50.511Z,5.22
2023-05-12T18:57:17.435Z,5.63
2023-05-12T18:59:43.989Z,5.40
2023-05-12T19:02:10.834Z,5.55
2023-05-12T19:04:37.505Z,5.35
2023-05-12T19:07:06.448Z,5.03
2023-05-12T19:09:32.858Z,5.63
2023-05-12T19:11:59.646Z,5.53
2023-05-12T19:14:26.235Z,5.00
2023-05-12T19:16:52.797Z,5.03
2023-05-12T19:19:19.229Z,5.13
2023-05-12T19:21:48.073Z,5.30
2023-05-12T19:24:15.529Z,5.57
2023-05-12T19:26:41.990Z,5.03
2023-05-12T19:29:08.522Z,5.22
2023-05-12T19:31:35.089Z,5.05
2023-05-12T19:34:01.680Z,5.35
2023-05-12T19:36:29.333Z,5.15
2023-05-12T19:38:59.522Z,4.90
2023-05-12T19:41:29.253Z,5.30
2023-05-12T19:43:56.864Z,5.25
2023-05-12T19:46:25.677Z,5.03
2023-05-12T19:48:52.697Z,4.72
2023-05-12T19:51:19.229Z,5.00
2023-05-12T19:53:48.019Z,5.05
2023-05-12T19:56:16.740Z,5.15
2023-05-12T19:58:43.183Z,4.97
2023-05-12T20:01:10.482Z,5.43
2023-05-12T20:03:37.957Z,5.53
2023-05-12T20:06:04.699Z,5.25
2023-05-12T20:08:31.252Z,4.88
2023-05-12T20:10:57.738Z,4.70
2023-05-12T20:13:24.143Z,4.80
2023-05-12T20:15:52.955Z,4.72
2023-05-12T20:18:23.256Z,4.93
2023-05-12T20:20:52.115Z,5.13
2023-05-12T20:23:18.692Z,5.32
2023-05-12T20:25:45.118Z,4.90
2023-05-12T20:28:13.992Z,5.07
2023-05-12T20:30:41.058Z,4.38
2023-05-12T20:33:07.614Z,4.70
2023-05-12T20:35:35.853Z,5.07
2023-05-12T20:38:04.676Z,4.68
2023-05-12T20:40:31.205Z,4.95
2023-05-12T20:42:57.611Z,4.75
2023-05-12T20:45:24.221Z,4.68
2023-05-12T20:47:53.279Z,4.68
2023-05-12T20:50:22.531Z,5.00
2023-05-12T20:52:49.973Z,4.85
2023-05-12T20:55:16.468Z,5.00
2023-05-12T20:57:42.917Z,4.78
2023-05-12T21:00:13.637Z,4.35
2023-05-12T21:02:40.160Z,4.85
2023-05-12T21:05:06.731Z,4.95
2023-05-12T21:07:33.399Z,4.55
2023-05-12T21:10:03.642Z,4.50
2023-05-12T21:12:30.126Z,5.28
2023-05-12T21:14:56.702Z,4.35
2023-05-12T21:17:23.173Z,4.47
2023-05-12T21:19:49.663Z,4.80
2023-05-12T21:22:16.115Z,4.57
2023-05-12T21:24:43.106Z,4.75
2023-05-12T21:27:12.016Z,4.53
2023-05-12T21:29:38.457Z,4.70
2023-05-12T21:32:08.053Z,5.05
2023-05-12T21:34:36.066Z,4.82
2023-05-12T21:37:03.097Z,4.75
2023-05-12T21:39:31.912Z,4.53
2023-05-12T21:41:58.423Z,4.75
2023-05-12T21:44:24.960Z,4.55
2023-05-12T21:46:51.482Z,4.40
2023-05-12T21:49:18.036Z,4.47
2023-05-12T21:51:44.897Z,4.70
2023-05-12T21:54:12.340Z,5.03
2023-05-12T21:56:38.858Z,4.60
2023-05-12T21:59:05.260Z,4.30
2023-05-12T22:01:31.772Z,4.32
2023-05-12T22:03:59.283Z,4.60
2023-05-12T22:06:26.159Z,4.50
2023-05-12T22:08:55.732Z,4.28
2023-05-12T22:11:22.396Z,4.30
2023-05-12T22:13:49.285Z,4.10
2023-05-12T22:16:16.109Z,4.15
2023-05-12T22:18:45.862Z,4.07
2023-05-12T22:21:12.588Z,4.60
2023-05-12T22:23:41.890Z,4.53
2023-05-12T22:26:10.746Z,4.50
2023-05-12T22:28:42.655Z,4.22
2023-05-12T22:31:09.173Z,4.13
2023-05-12T22:33:35.809Z,4.20
2023-05-12T22:36:04.712Z,4.18
2023-05-12T22:38:33.515Z,4.20
2023-05-12T22:41:00.143Z,4.47
2023-05-12T22:43:26.658Z,4.22
2023-05-12T22:45:53.315Z,4.28
2023-05-12T22:48:19.959Z,4.15
2023-05-12T22:50:46.512Z,4.50
2023-05-12T22:53:12.971Z,4.25
2023-05-12T22:55:41.767Z,4.60
2023-05-12T22:58:11.746Z,4.05
2023-05-12T23:00:38.236Z,4.05
2023-05-12T23:03:07.523Z,4.10
2023-05-12T23:05:34.083Z,4.03
2023-05-12T23:08:02.869Z,4.00
2023-05-12T23:10:31.460Z,4.20
2023-05-12T23:12:58.054Z,3.80
2023-05-12T23:15:24.651Z,4.10
2023-05-12T23:17:53.574Z,4.00
2023-05-12T23:20:20.107Z,4.43
2023-05-12T23:22:46.602Z,4.20
2023-05-12T23:25:13.204Z,4.03
2023-05-12T23:27:39.726Z,4.57
2023-05-12T23:30:10.061Z,3.92
2023-05-12T23:32:37.395Z,4.13
2023-05-12T23:35:04.478Z,3.55
2023-05-12T23:37:31.355Z,4.20
2023-05-12T23:40:00.793Z,4.28
2023-05-12T23:42:27.646Z,3.90
2023-05-12T23:44:54.260Z,4.00
2023-05-12T23:47:23.201Z,3.80
2023-05-12T23:49:49.688Z,4.10
2023-05-12T23:52:18.526Z,3.90
2023-05-12T23:54:44.992Z,4.15
2023-05-12T23:57:11.479Z,3.50
2023-05-12T23:59:37.933Z,4.10
